Time;durP1;ratioP1;P1;durP2;ratioP2;P2;SDS_P1;SDS_P2;PMS_P1;PMS_P2;Temp;Humidity;BMP_temperature;BMP_pressure;BME280_temperature;BME280_humidity;BME280_pressure;Samples;Min_cycle;Max_cycle;Signal;HPM_P1;HPM_P2
2023/12/13 00:00:07;;;;;;;0.20;0.20;;;;;;;8.72;100.00;94078.72;4310535;32;20233;-66
2023/12/13 00:02:35;;;;;;;0.13;0.13;;;;;;;8.78;100.00;94082.72;4286157;33;20209;-67
2023/12/13 00:05:00;;;;;;;0.00;0.00;;;;;;;8.79;100.00;94081.66;4290811;33;20194;-66
2023/12/13 00:07:27;;;;;;;0.00;0.00;;;;;;;8.81;100.00;94074.19;4320326;32;20389;-66
2023/12/13 00:09:52;;;;;;;0.10;0.10;;;;;;;8.83;100.00;94073.88;4320851;32;20190;-66
2023/12/13 00:12:18;;;;;;;0.00;0.00;;;;;;;8.77;100.00;94078.53;4289714;32;20194;-65
2023/12/13 00:14:44;;;;;;;0.00;0.00;;;;;;;8.78;100.00;94076.66;4315366;32;20247;-66
2023/12/13 00:17:14;;;;;;;0.00;0.00;;;;;;;8.78;100.00;94074.81;4315788;32;20244;-67
2023/12/13 00:19:41;;;;;;;0.00;0.00;;;;;;;8.72;100.00;94062.06;4292814;32;20273;-66
2023/12/13 00:22:07;;;;;;;0.00;0.00;;;;;;;8.84;100.00;94060.34;4294106;33;20223;-66
2023/12/13 00:24:34;;;;;;;0.00;0.00;;;;;;;8.74;100.00;94060.66;4306164;32;20266;-66
2023/12/13 00:27:00;;;;;;;0.00;0.00;;;;;;;8.77;100.00;94060.03;4301101;33;20242;-66
2023/12/13 00:29:25;;;;;;;0.00;0.00;;;;;;;8.80;100.00;94059.41;4296190;33;20210;-66
2023/12/13 00:31:52;;;;;;;0.00;0.00;;;;;;;8.77;100.00;94056.59;4286505;33;20198;-66
2023/12/13 00:34:17;;;;;;;0.00;0.00;;;;;;;8.75;100.00;94064.06;4301109;33;20259;-65
2023/12/13 00:36:44;;;;;;;0.00;0.00;;;;;;;8.78;100.00;94055.50;4306023;33;20219;-66
2023/12/13 00:39:09;;;;;;;0.33;0.00;;;;;;;8.71;100.00;94063.94;4325699;32;20190;-66
2023/12/13 00:41:34;;;;;;;0.00;0.00;;;;;;;8.80;100.00;94064.69;4315091;32;20266;-66
2023/12/13 00:44:03;;;;;;;0.83;0.33;;;;;;;8.72;100.00;94068.12;4293462;32;20216;-66
2023/12/13 00:46:29;;;;;;;0.07;0.07;;;;;;;8.66;100.00;94071.25;4288576;32;20308;-66
2023/12/13 00:48:54;;;;;;;0.10;0.10;;;;;;;8.61;100.00;94074.81;4323931;32;20259;-66
2023/12/13 00:51:22;;;;;;;0.33;0.20;;;;;;;8.72;100.00;94065.50;4318128;32;20194;-65
2023/12/13 00:53:49;;;;;;;0.10;0.10;;;;;;;8.62;100.00;94063.16;4308390;32;20201;-65
2023/12/13 00:56:15;;;;;;;0.00;0.00;;;;;;;8.58;100.00;94070.13;4307862;32;20278;-66
2023/12/13 00:58:43;;;;;;;0.20;0.10;;;;;;;8.62;100.00;94063.16;4312768;32;20249;-66
2023/12/13 01:01:10;;;;;;;0.10;0.10;;;;;;;8.73;100.00;94067.03;4315037;33;20197;-66
2023/12/13 01:03:35;;;;;;;0.00;0.00;;;;;;;8.65;100.00;94067.81;4325838;33;20197;-66
2023/12/13 01:06:06;;;;;;;0.00;0.00;;;;;;;8.65;100.00;94051.19;4312417;32;20252;-66
2023/12/13 01:08:31;;;;;;;0.00;0.00;;;;;;;8.61;100.00;94061.59;4297704;33;20225;-66
2023/12/13 01:10:58;;;;;;;0.00;0.00;;;;;;;8.65;100.00;94069.69;4323011;32;20208;-66
2023/12/13 01:13:24;;;;;;;0.00;0.00;;;;;;;8.63;100.00;94059.41;4304605;33;20255;-65
2023/12/13 01:15:49;;;;;;;0.00;0.00;;;;;;;8.58;100.00;94068.28;4328663;32;20295;-66
2023/12/13 01:18:14;;;;;;;0.20;0.20;;;;;;;8.57;100.00;94065.94;4314769;32;20197;-66
2023/12/13 01:20:40;;;;;;;0.00;0.00;;;;;;;8.57;100.00;94071.22;4321151;32;20202;-66
2023/12/13 01:23:07;;;;;;;0.00;0.00;;;;;;;8.65;100.00;94067.81;4313842;32;20216;-66
2023/12/13 01:25:32;;;;;;;0.00;0.00;;;;;;;8.65;100.00;94067.03;4302594;32;20210;-66
2023/12/13 01:27:59;;;;;;;0.00;0.00;;;;;;;8.61;100.00;94061.59;4321205;32;20216;-66
2023/12/13 01:30:24;;;;;;;0.00;0.00;;;;;;;8.59;100.00;94061.13;4322529;32;20260;-66
2023/12/13 01:32:51;;;;;;;0.30;0.30;;;;;;;8.57;100.00;94066.72;4308762;32;20206;-64
2023/12/13 01:35:19;;;;;;;0.00;0.00;;;;;;;8.55;100.00;94062.81;4328096;32;20246;-66
2023/12/13 01:37:44;;;;;;;0.00;0.00;;;;;;;8.59;100.00;94061.13;4326669;32;20201;-66
2023/12/13 01:40:11;;;;;;;0.00;0.00;;;;;;;8.58;100.00;94063.00;4291355;33;20306;-66
2023/12/13 01:42:38;;;;;;;0.00;0.00;;;;;;;8.62;100.00;94063.16;4312651;32;20315;-66
2023/12/13 01:45:05;;;;;;;0.00;0.00;;;;;;;8.69;100.00;94068.75;4326541;32;20388;-66
2023/12/13 01:47:32;;;;;;;0.00;0.00;;;;;;;8.71;100.00;94073.72;4317070;32;20263;-66
2023/12/13 01:49:59;;;;;;;0.00;0.00;;;;;;;8.75;100.00;94066.72;4323851;32;20186;-66
2023/12/13 01:52:29;;;;;;;0.10;0.10;;;;;;;8.70;100.00;94070.31;4322111;32;20409;-66
2023/12/13 01:54:56;;;;;;;0.00;0.00;;;;;;;8.71;100.00;94073.72;4302624;33;20334;-66
2023/12/13 01:57:22;;;;;;;0.07;0.07;;;;;;;8.76;100.00;94073.56;4314128;33;20351;-66
2023/12/13 01:59:47;;;;;;;0.00;0.00;;;;;;;8.68;100.00;94079.63;4325061;32;20260;-63
2023/12/13 02:02:13;;;;;;;0.00;0.00;;;;;;;8.63;100.00;94085.84;4331829;32;20207;-66
2023/12/13 02:04:41;;;;;;;0.00;0.00;;;;;;;8.65;100.00;94088.97;4338794;32;20189;-66
2023/12/13 02:07:06;;;;;;;0.10;0.10;;;;;;;8.69;100.00;94078.56;4296470;32;20204;-66
2023/12/13 02:09:31;;;;;;;0.40;0.33;;;;;;;8.60;100.00;94087.25;4295486;32;20297;-66
2023/12/13 02:11:57;;;;;;;0.00;0.00;;;;;;;8.62;100.00;94089.59;4309598;32;20235;-66
2023/12/13 02:14:27;;;;;;;0.33;0.20;;;;;;;8.63;100.00;94077.91;4305294;33;20261;-65
2023/12/13 02:16:53;;;;;;;0.00;0.00;;;;;;;8.64;100.00;94079.47;4312462;33;20186;-66
2023/12/13 02:19:19;;;;;;;0.20;0.20;;;;;;;8.72;100.00;94076.06;4324313;32;20224;-66
2023/12/13 02:21:49;;;;;;;0.83;0.20;;;;;;;8.63;100.00;94085.06;4297077;33;20181;-66
2023/12/13 02:24:15;;;;;;;0.00;0.00;;;;;;;8.50;100.00;94082.28;4306021;33;20194;-66
2023/12/13 02:26:43;;;;;;;0.10;0.10;;;;;;;8.52;100.00;94069.50;4315565;32;20312;-66
2023/12/13 02:29:12;;;;;;;1.70;0.23;;;;;;;8.47;100.00;94074.19;4328683;32;20274;-67
2023/12/13 02:31:39;;;;;;;0.53;0.00;;;;;;;8.54;100.00;94074.50;4313244;32;20268;-66
2023/12/13 02:34:05;;;;;;;0.00;0.00;;;;;;;8.51;100.00;94075.12;4310658;32;20338;-66
2023/12/13 02:36:32;;;;;;;0.20;0.20;;;;;;;8.50;100.00;94069.06;4328646;32;20200;-66
2023/12/13 02:38:57;;;;;;;0.00;0.00;;;;;;;8.56;100.00;94081.03;4320736;32;20228;-66
2023/12/13 02:41:24;;;;;;;7.63;0.43;;;;;;;8.50;100.00;94076.22;4334898;32;20182;-66
2023/12/13 02:43:50;;;;;;;0.00;0.00;;;;;;;8.55;100.00;94086.63;4339112;32;20200;-66
2023/12/13 02:46:17;;;;;;;0.10;0.10;;;;;;;8.47;100.00;94087.41;4329050;32;20282;-66
2023/12/13 02:48:43;;;;;;;0.10;0.10;;;;;;;8.41;100.00;94072.78;4329798;32;20278;-66
2023/12/13 02:51:12;;;;;;;0.00;0.00;;;;;;;8.50;100.00;94086.78;4321270;32;20373;-66
2023/12/13 02:53:37;;;;;;;0.10;0.10;;;;;;;8.46;100.00;94075.28;4344406;32;20269;-66
2023/12/13 02:56:03;;;;;;;0.10;0.10;;;;;;;8.34;100.00;94072.44;4318114;32;20287;-66
2023/12/13 02:58:28;;;;;;;0.00;0.00;;;;;;;8.39;100.00;94061.75;4317045;32;20182;-66
2023/12/13 03:00:54;;;;;;;0.00;0.00;;;;;;;8.41;100.00;94062.22;4318016;32;20229;-66
2023/12/13 03:03:19;;;;;;;0.17;0.17;;;;;;;8.33;100.00;94063.75;4330617;32;20190;-65
2023/12/13 03:05:45;;;;;;;0.10;0.10;;;;;;;8.37;100.00;94061.28;4327689;32;20193;-66
2023/12/13 03:08:14;;;;;;;0.97;0.17;;;;;;;8.30;100.00;94059.06;4301273;33;20348;-66
2023/12/13 03:10:41;;;;;;;0.20;0.20;;;;;;;8.42;100.00;94061.91;4309099;32;20231;-66
2023/12/13 03:13:07;;;;;;;0.00;0.00;;;;;;;8.51;100.00;94056.63;4312521;32;20302;-66
2023/12/13 03:15:34;;;;;;;0.00;0.00;;;;;;;8.44;100.00;94056.31;4316288;32;20324;-66
2023/12/13 03:18:00;;;;;;;0.10;0.10;;;;;;;8.40;100.00;94050.88;4325435;32;20193;-66
2023/12/13 03:20:26;;;;;;;0.00;0.00;;;;;;;8.32;100.00;94058.75;4307050;32;20291;-66
2023/12/13 03:22:55;;;;;;;0.00;0.00;;;;;;;8.41;100.00;94059.56;4272939;33;20275;-65
2023/12/13 03:25:20;;;;;;;0.00;0.00;;;;;;;8.38;100.00;94063.59;4299223;32;20229;-66
2023/12/13 03:27:46;;;;;;;0.13;0.13;;;;;;;8.44;100.00;94064.25;4305519;33;20301;-66
2023/12/13 03:30:13;;;;;;;0.00;0.00;;;;;;;8.36;100.00;94076.34;4284390;32;20248;-66
2023/12/13 03:32:40;;;;;;;0.00;0.00;;;;;;;8.32;100.00;94077.25;4328511;32;20190;-66
2023/12/13 03:35:07;;;;;;;0.00;0.00;;;;;;;8.39;100.00;94067.03;4309996;32;20287;-66
2023/12/13 03:37:34;;;;;;;0.10;0.10;;;;;;;8.27;100.00;94062.34;4307653;32;20298;-66
2023/12/13 03:40:03;;;;;;;1.13;0.27;;;;;;;8.29;100.00;94054.88;4299358;32;20358;-66
2023/12/13 03:42:28;;;;;;;0.00;0.00;;;;;;;8.18;100.00;94054.38;4324090;32;20401;-66
2023/12/13 03:44:56;;;;;;;0.00;0.00;;;;;;;8.14;100.00;94050.81;4301907;32;20290;-66
2023/12/13 03:47:21;;;;;;;0.43;0.30;;;;;;;8.16;100.00;94043.34;4323006;32;20241;-66
2023/12/13 03:49:48;;;;;;;0.00;0.00;;;;;;;8.16;100.00;94039.94;4316397;33;20275;-66
2023/12/13 03:52:13;;;;;;;0.27;0.27;;;;;;;8.01;100.00;94038.53;4308290;33;20200;-66
2023/12/13 03:54:41;;;;;;;0.10;0.10;;;;;;;8.00;100.00;94044.09;4291784;32;20274;-66
2023/12/13 03:57:06;;;;;;;0.00;0.00;;;;;;;8.08;100.00;94052.06;4313063;32;20324;-66
2023/12/13 03:59:31;;;;;;;3.70;0.20;;;;;;;8.14;100.00;94044.75;4308457;32;20276;-66
2023/12/13 04:01:58;;;;;;;2.23;0.17;;;;;;;8.09;100.00;94050.19;4304823;32;20241;-66
2023/12/13 04:04:23;;;;;;;0.00;0.00;;;;;;;8.16;100.00;94051.28;4296217;32;20216;-66
2023/12/13 04:06:48;;;;;;;0.00;0.00;;;;;;;8.19;100.00;94050.66;4300777;32;20286;-65
2023/12/13 04:09:15;;;;;;;0.10;0.10;;;;;;;8.30;100.00;94045.09;4280784;32;20278;-66
2023/12/13 04:11:41;;;;;;;0.00;0.00;;;;;;;8.25;100.00;94046.00;4295295;32;20307;-66
2023/12/13 04:14:07;;;;;;;0.20;0.20;;;;;;;8.18;100.00;94049.09;4330705;32;20304;-66
2023/12/13 04:16:32;;;;;;;0.00;0.00;;;;;;;8.18;100.00;94050.97;4326523;32;20177;-66
2023/12/13 04:18:58;;;;;;;0.03;0.03;;;;;;;8.26;100.00;94050.22;4321374;32;20204;-66
2023/12/13 04:21:23;;;;;;;0.10;0.10;;;;;;;8.37;100.00;94045.41;4293460;32;20276;-66
2023/12/13 04:23:48;;;;;;;0.00;0.00;;;;;;;8.48;100.00;94044.03;4327068;32;20248;-65
2023/12/13 04:26:14;;;;;;;0.10;0.10;;;;;;;8.44;100.00;94045.75;4328352;33;20185;-66
2023/12/13 04:28:39;;;;;;;0.10;0.10;;;;;;;8.49;100.00;94041.09;4321998;32;20186;-66
2023/12/13 04:31:07;;;;;;;0.00;0.00;;;;;;;8.64;100.00;94045.12;4299049;32;20255;-66
2023/12/13 04:33:35;;;;;;;0.07;0.07;;;;;;;8.68;100.00;94039.97;4332189;32;20239;-65
2023/12/13 04:36:01;;;;;;;0.37;0.20;;;;;;;8.70;100.00;94033.31;4310593;33;20374;-66
2023/12/13 04:38:26;;;;;;;0.97;0.20;;;;;;;8.66;100.00;94024.44;4309117;32;20197;-66
2023/12/13 04:40:51;;;;;;;0.70;0.10;;;;;;;8.66;100.00;94027.06;4324530;32;20211;-65
2023/12/13 04:43:17;;;;;;;0.00;0.00;;;;;;;8.68;100.00;94024.91;4300673;33;20207;-66
2023/12/13 04:45:42;;;;;;;0.30;0.20;;;;;;;8.72;100.00;94028.47;4288055;33;20251;-66
2023/12/13 04:48:07;;;;;;;0.03;0.03;;;;;;;8.73;100.00;94011.50;4315771;32;20244;-66
2023/12/13 04:50:33;;;;;;;0.00;0.00;;;;;;;8.65;100.00;94014.94;4320305;32;20205;-66
2023/12/13 04:53:02;;;;;;;0.10;0.10;;;;;;;8.63;100.00;94016.34;4300910;33;20209;-66
2023/12/13 04:55:27;;;;;;;0.10;0.10;;;;;;;8.60;100.00;94001.87;4327625;32;20217;-66
2023/12/13 04:57:54;;;;;;;0.00;0.00;;;;;;;8.71;100.00;94013.72;4326164;32;20208;-65
2023/12/13 05:00:19;;;;;;;0.43;0.43;;;;;;;8.78;100.00;94021.12;4332326;32;20205;-66
2023/12/13 05:02:45;;;;;;;0.00;0.00;;;;;;;8.83;100.00;94018.34;4315423;32;20214;-66
2023/12/13 05:05:10;;;;;;;0.10;0.10;;;;;;;8.79;100.00;94023.47;4304171;32;20284;-66
2023/12/13 05:07:37;;;;;;;0.00;0.00;;;;;;;8.64;100.00;94023.97;4306938;32;20204;-66
2023/12/13 05:10:02;;;;;;;0.13;0.13;;;;;;;8.74;100.00;94031.56;4302560;32;20174;-65
2023/12/13 05:12:28;;;;;;;0.00;0.00;;;;;;;8.68;100.00;94022.25;4324941;32;20217;-65
2023/12/13 05:14:53;;;;;;;0.27;0.20;;;;;;;8.73;100.00;94027.38;4324784;32;20201;-65
2023/12/13 05:17:19;;;;;;;0.10;0.10;;;;;;;8.69;100.00;94037.03;4307673;32;20213;-65
2023/12/13 05:19:46;;;;;;;0.43;0.30;;;;;;;8.76;100.00;94012.75;4306574;33;20261;-66
2023/12/13 05:22:12;;;;;;;0.30;0.30;;;;;;;8.55;100.00;94020.53;4308172;32;20209;-66
2023/12/13 05:24:38;;;;;;;0.00;0.00;;;;;;;8.56;100.00;94014.94;4321248;32;20284;-66
2023/12/13 05:27:05;;;;;;;0.00;0.00;;;;;;;8.35;100.00;94007.97;4310797;33;20209;-66
2023/12/13 05:29:30;;;;;;;0.00;0.00;;;;;;;8.58;100.00;93993.50;4300450;33;20207;-66
2023/12/13 05:31:55;;;;;;;0.00;0.00;;;;;;;8.54;100.00;93985.41;4310032;32;20209;-66
2023/12/13 05:34:21;;;;;;;0.00;0.00;;;;;;;8.48;100.00;93988.53;4334271;32;20180;-66
2023/12/13 05:36:48;;;;;;;0.13;0.13;;;;;;;8.41;100.00;93993.50;4329152;32;20186;-66
2023/12/13 05:39:14;;;;;;;0.10;0.00;;;;;;;8.49;100.00;93990.09;4301062;32;20267;-66
2023/12/13 05:41:39;;;;;;;0.20;0.20;;;;;;;8.65;100.00;93987.75;4345787;32;20182;-66
2023/12/13 05:44:05;;;;;;;0.27;0.27;;;;;;;8.59;100.00;93984.47;4330446;32;20239;-66
2023/12/13 05:46:34;;;;;;;0.20;0.20;;;;;;;8.50;100.00;93989.00;4327438;32;20216;-66
2023/12/13 05:49:02;;;;;;;0.00;0.00;;;;;;;8.33;100.00;93986.34;4328092;32;20190;-66
2023/12/13 05:51:27;;;;;;;0.00;0.00;;;;;;;8.19;100.00;93987.25;4321942;32;20264;-66
2023/12/13 05:53:53;;;;;;;0.20;0.20;;;;;;;8.39;100.00;93985.88;4325380;32;20255;-65
2023/12/13 05:56:18;;;;;;;0.30;0.30;;;;;;;8.30;100.00;93982.47;4323262;32;20225;-66
2023/12/13 05:58:43;;;;;;;0.23;0.23;;;;;;;8.36;100.00;93977.81;4330349;32;20297;-66
2023/12/13 06:01:08;;;;;;;0.10;0.10;;;;;;;8.51;100.00;93975.47;4324505;32;20273;-66
2023/12/13 06:03:34;;;;;;;0.33;0.10;;;;;;;8.21;100.00;93973.75;4324347;32;20208;-66
2023/12/13 06:05:59;;;;;;;3.50;0.60;;;;;;;8.35;100.00;93970.97;4342911;32;20186;-66
2023/12/13 06:08:24;;;;;;;0.83;0.10;;;;;;;8.24;100.00;93973.91;4329633;32;20311;-66
2023/12/13 06:10:50;;;;;;;0.63;0.20;;;;;;;8.45;100.00;93973.31;4345314;32;20219;-65
2023/12/13 06:13:17;;;;;;;0.20;0.20;;;;;;;8.52;100.00;93973.63;4328664;32;20185;-66
2023/12/13 06:15:43;;;;;;;0.30;0.30;;;;;;;8.65;100.00;93972.66;4327193;32;20185;-66
2023/12/13 06:18:08;;;;;;;0.00;0.00;;;;;;;8.54;100.00;93969.53;4329555;32;20231;-66
2023/12/13 06:20:33;;;;;;;0.33;0.33;;;;;;;8.52;100.00;93968.34;4323988;32;20236;-66
2023/12/13 06:22:59;;;;;;;0.10;0.10;;;;;;;8.31;100.00;93972.69;4323047;33;20173;-66
2023/12/13 06:25:24;;;;;;;0.00;0.00;;;;;;;8.27;100.00;93978.56;4333799;32;20186;-66
2023/12/13 06:27:50;;;;;;;0.10;0.10;;;;;;;8.11;100.00;93982.75;4322717;32;20189;-66
2023/12/13 06:30:15;;;;;;;0.00;0.00;;;;;;;8.10;100.00;93978.59;4326552;32;20244;-66
2023/12/13 06:32:40;;;;;;;0.10;0.10;;;;;;;8.15;100.00;93973.13;4321480;32;20324;-66
2023/12/13 06:35:06;;;;;;;0.10;0.10;;;;;;;8.18;100.00;93977.78;4344600;32;20202;-66
2023/12/13 06:37:32;;;;;;;0.20;0.20;;;;;;;8.25;100.00;93970.19;4319941;33;20198;-66
2023/12/13 06:39:57;;;;;;;0.07;0.07;;;;;;;8.15;100.00;93975.75;4343422;32;20205;-66
2023/12/13 06:42:22;;;;;;;0.20;0.20;;;;;;;8.13;100.00;93966.59;4331394;32;20289;-66
2023/12/13 06:44:47;;;;;;;0.10;0.10;;;;;;;8.20;100.00;93961.62;4334559;32;20198;-61
2023/12/13 06:47:13;;;;;;;0.03;0.03;;;;;;;8.17;100.00;93962.25;4341782;32;20205;-66
2023/12/13 06:49:38;;;;;;;0.13;0.13;;;;;;;8.09;100.00;93961.19;4322719;32;20219;-66
2023/12/13 06:52:04;;;;;;;0.30;0.30;;;;;;;7.91;100.00;93959.59;4325274;32;20196;-66
2023/12/13 06:54:29;;;;;;;0.20;0.20;;;;;;;7.90;100.00;93960.69;4337784;32;20189;-66
2023/12/13 06:56:55;;;;;;;0.27;0.27;;;;;;;7.84;100.00;93964.56;4323982;32;20208;-66
2023/12/13 06:59:20;;;;;;;0.00;0.00;;;;;;;7.91;100.00;93964.87;4319537;32;20178;-66
2023/12/13 07:01:46;;;;;;;0.40;0.40;;;;;;;7.90;100.00;93958.03;4344750;32;20216;-66
2023/12/13 07:04:11;;;;;;;0.33;0.30;;;;;;;7.90;100.00;93958.81;4334920;32;20201;-66
2023/12/13 07:06:37;;;;;;;0.43;0.33;;;;;;;7.98;100.00;93959.91;4324563;33;27173;-66
2023/12/13 07:09:02;;;;;;;0.23;0.23;;;;;;;8.10;100.00;93961.97;4331567;32;20189;-66
2023/12/13 07:11:28;;;;;;;0.03;0.03;;;;;;;8.05;100.00;93959.47;4320036;32;20251;-66
2023/12/13 07:13:53;;;;;;;0.27;0.27;;;;;;;8.04;100.00;93957.91;4344895;32;20185;-65
2023/12/13 07:16:18;;;;;;;2.47;0.50;;;;;;;7.97;100.00;93950.44;4344149;32;20208;-65
2023/12/13 07:18:45;;;;;;;0.20;0.20;;;;;;;8.09;100.00;93942.69;4343199;32;20190;-66
2023/12/13 07:21:10;;;;;;;0.53;0.53;;;;;;;8.11;100.00;93945.78;4338973;32;20239;-66
2023/12/13 07:23:36;;;;;;;0.20;0.20;;;;;;;8.00;100.00;93939.25;4342105;32;20240;-66
2023/12/13 07:26:02;;;;;;;0.20;0.20;;;;;;;8.07;100.00;93944.88;4331987;32;20300;-67
2023/12/13 07:28:28;;;;;;;0.10;0.10;;;;;;;7.85;100.00;93939.72;4337813;32;20185;-65
2023/12/13 07:30:55;;;;;;;9.77;0.93;;;;;;;7.67;100.00;93943.44;4325409;33;20278;-65
2023/12/13 07:33:20;;;;;;;3.20;0.50;;;;;;;10.24;100.00;93930.44;4322787;32;20198;-65
2023/12/13 07:35:47;;;;;;;0.10;0.10;;;;;;;11.09;100.00;93927.25;4345074;32;20235;-64
2023/12/13 07:38:13;;;;;;;0.40;0.30;;;;;;;11.95;100.00;93930.66;4324241;32;20200;-64
2023/12/13 07:40:40;;;;;;;0.30;0.30;;;;;;;12.69;98.45;93931.94;4338425;32;20200;-64
2023/12/13 07:43:06;;;;;;;0.27;0.27;;;;;;;13.03;95.13;93928.66;4324047;33;20308;-63
2023/12/13 07:45:31;;;;;;;0.10;0.10;;;;;;;13.25;92.90;93927.31;4335413;32;20200;-64
2023/12/13 07:47:57;;;;;;;0.30;0.30;;;;;;;13.62;88.03;93925.13;4328859;32;20207;-64
2023/12/13 07:50:22;;;;;;;0.37;0.37;;;;;;;13.67;86.31;93932.09;4328235;32;20208;-64
2023/12/13 07:52:48;;;;;;;1.20;0.47;;;;;;;13.41;86.20;93925.41;4317111;33;20181;-64
2023/12/13 07:55:18;;;;;;;0.10;0.10;;;;;;;13.59;85.48;93935.69;4343987;32;20323;-63
2023/12/13 07:57:43;;;;;;;0.63;0.30;;;;;;;13.55;84.89;93935.63;4339776;32;20189;-65
2023/12/13 08:00:10;;;;;;;0.30;0.30;;;;;;;12.11;89.64;93936.81;4324339;32;20223;-64
2023/12/13 08:02:36;;;;;;;0.47;0.47;;;;;;;11.66;91.66;93935.09;4327921;32;20311;-65
2023/12/13 08:05:01;;;;;;;0.13;0.13;;;;;;;11.18;93.66;93937.75;4324680;33;20193;-65
2023/12/13 08:07:27;;;;;;;0.50;0.40;;;;;;;10.21;99.29;93935.59;4339905;32;20185;-65
2023/12/13 08:09:54;;;;;;;0.27;0.20;;;;;;;9.73;100.00;93938.75;4317947;32;20215;-65
2023/12/13 08:12:19;;;;;;;0.13;0.13;;;;;;;9.59;100.00;93941.63;4332122;32;20293;-64
2023/12/13 08:14:45;;;;;;;7.43;0.73;;;;;;;9.45;100.00;93935.78;4327267;33;20182;-65
2023/12/13 08:17:11;;;;;;;0.30;0.30;;;;;;;9.09;100.00;93938.94;4341559;32;20181;-65
2023/12/13 08:19:37;;;;;;;0.53;0.53;;;;;;;8.90;100.00;93926.87;4326046;32;20240;-65
2023/12/13 08:22:03;;;;;;;0.40;0.40;;;;;;;8.67;100.00;93927.41;4336818;32;20189;-65
2023/12/13 08:24:28;;;;;;;0.40;0.40;;;;;;;8.88;100.00;93917.69;4324671;32;20244;-63
2023/12/13 08:26:53;;;;;;;0.63;0.63;;;;;;;8.90;100.00;93921.56;4327570;33;20185;-64
2023/12/13 08:29:19;;;;;;;0.60;0.60;;;;;;;8.79;100.00;93923.00;4326216;33;20269;-64
2023/12/13 08:31:45;;;;;;;0.27;0.27;;;;;;;8.68;100.00;93932.38;4343912;32;20197;-64
2023/12/13 08:34:10;;;;;;;0.33;0.33;;;;;;;8.61;100.00;93926.78;4328557;32;20181;-63
2023/12/13 08:36:35;;;;;;;1.40;0.60;;;;;;;8.70;100.00;93938.12;4328139;33;20236;-63
2023/12/13 08:39:02;;;;;;;0.37;0.37;;;;;;;8.77;100.00;93930.47;4337638;33;20274;-63
2023/12/13 08:41:27;;;;;;;0.27;0.27;;;;;;;8.98;100.00;93927.13;4335309;32;20223;-63
2023/12/13 08:43:53;;;;;;;0.20;0.20;;;;;;;8.79;100.00;93920.34;4334303;33;20190;-63
2023/12/13 08:46:18;;;;;;;2.73;0.33;;;;;;;9.14;100.00;93918.37;4344690;32;20197;-62
2023/12/13 08:48:45;;;;;;;0.33;0.20;;;;;;;12.59;100.00;93903.16;4326293;32;20224;-61
2023/12/13 08:51:11;;;;;;;0.20;0.20;;;;;;;14.06;96.02;93900.94;4323085;33;20200;-63
2023/12/13 08:53:36;;;;;;;0.30;0.30;;;;;;;12.79;87.49;93902.16;4312096;32;20221;-63
2023/12/13 08:56:01;;;;;;;0.40;0.40;;;;;;;12.18;89.77;93907.00;4329962;32;20215;-63
2023/12/13 08:58:27;;;;;;;0.53;0.53;;;;;;;11.12;94.24;93908.00;4324373;32;20198;-62
2023/12/13 09:00:52;;;;;;;0.73;0.73;;;;;;;9.79;100.00;93908.31;4329929;32;20213;-63
2023/12/13 09:03:19;;;;;;;0.30;0.30;;;;;;;9.42;100.00;93909.97;4332950;33;20205;-61
2023/12/13 09:05:45;;;;;;;0.47;0.30;;;;;;;9.12;100.00;93909.19;4345707;32;20181;-63
2023/12/13 09:08:10;;;;;;;0.83;0.40;;;;;;;9.44;100.00;93905.91;4328306;33;20201;-63
2023/12/13 09:10:35;;;;;;;0.30;0.30;;;;;;;9.45;100.00;93890.81;4330016;32;20250;-63
2023/12/13 09:13:02;;;;;;;0.50;0.50;;;;;;;8.77;100.00;93903.25;4326919;32;20189;-64
2023/12/13 09:15:28;;;;;;;0.33;0.33;;;;;;;8.82;100.00;93898.56;4320200;33;20248;-62
2023/12/13 09:17:53;;;;;;;6.60;0.60;;;;;;;8.89;100.00;93888.28;4335257;32;20189;-62
2023/12/13 09:20:18;;;;;;;0.77;0.40;;;;;;;9.06;100.00;93891.94;4337643;32;20204;-62
2023/12/13 09:22:44;;;;;;;0.53;0.53;;;;;;;8.80;100.00;93894.69;4325476;33;20178;-62
2023/12/13 09:25:13;;;;;;;0.50;0.50;;;;;;;9.12;100.00;93890.69;4341850;32;20196;-63
2023/12/13 09:27:38;;;;;;;0.43;0.43;;;;;;;9.11;100.00;93894.41;4321082;32;20265;-63
2023/12/13 09:30:04;;;;;;;0.50;0.50;;;;;;;8.99;100.00;93879.22;4320907;32;20189;-63
2023/12/13 09:32:30;;;;;;;0.87;0.50;;;;;;;9.13;100.00;93879.00;4345460;32;20185;-63
2023/12/13 09:34:55;;;;;;;0.20;0.20;;;;;;;9.21;100.00;93878.16;4345865;32;20195;-62
2023/12/13 09:37:21;;;;;;;7.33;0.60;;;;;;;9.39;100.00;93890.19;4339860;32;20201;-62
2023/12/13 09:39:46;;;;;;;0.57;0.37;;;;;;;9.28;100.00;93889.03;4325041;32;20181;-63
2023/12/13 09:42:12;;;;;;;1.50;0.47;;;;;;;9.31;100.00;93898.97;4322103;32;20231;-63
2023/12/13 09:44:39;;;;;;;3.03;0.83;;;;;;;9.54;100.00;93891.53;4333892;32;21356;-63
2023/12/13 09:47:05;;;;;;;0.40;0.40;;;;;;;9.36;100.00;93885.53;4329050;32;20198;-63
2023/12/13 09:49:31;;;;;;;0.37;0.37;;;;;;;9.28;100.00;93889.03;4318844;33;20237;-62
2023/12/13 09:52:02;;;;;;;0.57;0.57;;;;;;;9.43;100.00;93877.88;4345186;32;20231;-62
2023/12/13 09:54:28;;;;;;;0.27;0.27;;;;;;;9.55;100.00;93885.16;4322417;33;20244;-63
2023/12/13 09:56:54;;;;;;;0.70;0.70;;;;;;;9.74;100.00;93895.28;4332963;32;20205;-63
2023/12/13 09:59:19;;;;;;;0.20;0.20;;;;;;;9.62;100.00;93894.09;4324228;32;20197;-62
2023/12/13 10:01:44;;;;;;;0.57;0.57;;;;;;;9.80;100.00;93893.97;4327091;32;20209;-63
2023/12/13 10:04:10;;;;;;;0.40;0.40;;;;;;;9.93;100.00;93891.09;4328796;32;20189;-63
2023/12/13 10:06:35;;;;;;;0.20;0.20;;;;;;;10.23;100.00;93889.13;4332782;32;20283;-64
2023/12/13 10:09:03;;;;;;;0.60;0.60;;;;;;;10.30;100.00;93902.63;4326991;32;20229;-63
2023/12/13 10:11:29;;;;;;;0.40;0.40;;;;;;;10.36;100.00;93894.50;4325157;32;20190;-63
2023/12/13 10:13:56;;;;;;;0.30;0.30;;;;;;;10.53;100.00;93894.31;4330204;32;20211;-62
2023/12/13 10:16:21;;;;;;;0.83;0.60;;;;;;;10.48;100.00;93899.81;4328623;32;20204;-62
2023/12/13 10:18:47;;;;;;;1.30;0.73;;;;;;;10.48;100.00;93887.34;4329787;32;20190;-63
2023/12/13 10:21:14;;;;;;;1.13;0.50;;;;;;;10.64;100.00;93887.47;4333304;32;20174;-63
2023/12/13 10:23:41;;;;;;;0.90;0.37;;;;;;;10.64;100.00;93882.19;4330567;32;20204;-63
2023/12/13 10:26:07;;;;;;;0.33;0.33;;;;;;;10.81;100.00;93887.28;4319106;32;20225;-63
2023/12/13 10:28:35;;;;;;;2.03;0.73;;;;;;;10.93;99.88;93889.97;4324296;32;20182;-63
2023/12/13 10:31:00;;;;;;;0.20;0.07;;;;;;;10.95;100.00;93885.09;4328632;32;20186;-62
2023/12/13 10:33:26;;;;;;;0.20;0.20;;;;;;;10.85;100.00;93885.53;4321072;32;20204;-62
2023/12/13 10:35:53;;;;;;;0.43;0.43;;;;;;;10.65;100.00;93875.78;4320940;33;20265;-63
2023/12/13 10:38:23;;;;;;;0.30;0.30;;;;;;;10.64;99.97;93876.88;4328757;32;20204;-61
2023/12/13 10:40:49;;;;;;;0.73;0.63;;;;;;;10.52;100.00;93876.84;4330555;32;20185;-60
2023/12/13 10:43:15;;;;;;;0.30;0.30;;;;;;;10.42;100.00;93878.03;4330004;32;20215;-62
2023/12/13 10:45:49;;;;;;;0.30;0.30;;;;;;;10.61;100.00;93875.66;4327875;32;20178;-63
2023/12/13 10:48:17;;;;;;;0.93;0.93;;;;;;;10.39;100.00;93878.72;4331205;32;20181;-63
2023/12/13 10:50:48;;;;;;;0.30;0.30;;;;;;;10.36;100.00;93873.28;4329369;32;20186;-63
2023/12/13 10:53:16;;;;;;;0.30;0.30;;;;;;;10.66;100.00;93869.38;4326602;33;20239;-63
2023/12/13 10:55:42;;;;;;;0.20;0.20;;;;;;;10.66;100.00;93866.72;4328493;32;20260;-63
2023/12/13 10:58:08;;;;;;;0.47;0.47;;;;;;;10.80;100.00;93858.47;4327506;32;20193;-63
2023/12/13 11:00:34;;;;;;;0.20;0.20;;;;;;;10.79;100.00;93855.03;4324625;32;20190;-62
2023/12/13 11:03:06;;;;;;;0.43;0.43;;;;;;;10.82;99.80;93862.31;4329323;33;20264;-63
2023/12/13 11:05:32;;;;;;;0.83;0.40;;;;;;;11.27;97.70;93845.50;4312482;33;20241;-64
2023/12/13 11:07:57;;;;;;;0.20;0.20;;;;;;;11.13;98.76;93853.03;4325390;32;20190;-63
2023/12/13 11:10:22;;;;;;;0.17;0.17;;;;;;;10.79;99.54;93848.94;4332004;32;20239;-63
2023/12/13 11:12:49;;;;;;;0.87;0.40;;;;;;;10.63;98.85;93852.22;4323300;33;20208;-59
2023/12/13 11:15:15;;;;;;;0.30;0.30;;;;;;;10.88;99.55;93849.59;4331554;32;20265;-63
2023/12/13 11:17:45;;;;;;;0.33;0.33;;;;;;;10.82;99.66;93851.69;4314109;32;20252;-63
2023/12/13 11:20:13;;;;;;;0.20;0.20;;;;;;;10.53;98.86;93846.59;4312212;33;20182;-64
2023/12/13 11:22:42;;;;;;;0.50;0.50;;;;;;;10.57;99.87;93847.47;4307848;32;20319;-63
2023/12/13 11:25:07;;;;;;;0.00;0.00;;;;;;;10.56;99.26;93840.63;4330169;32;20183;-63